createdAt,value
2018-07-17T00:02:09.009Z,4.40
2018-07-17T00:04:36.676Z,4.90
2018-07-17T00:07:04.219Z,5.13
2018-07-17T00:09:31.828Z,4.30
2018-07-17T00:11:59.348Z,4.77
2018-07-17T00:14:26.906Z,4.80
2018-07-17T00:16:54.508Z,4.90
2018-07-17T00:19:22.036Z,4.37
2018-07-17T00:21:49.571Z,4.97
2018-07-17T00:24:17.159Z,4.80
2018-07-17T00:26:44.694Z,5.07
2018-07-17T00:29:12.226Z,4.70
2018-07-17T00:31:39.795Z,4.63
2018-07-17T00:34:07.354Z,5.07
2018-07-17T00:36:34.894Z,4.43
2018-07-17T00:39:02.720Z,5.50
2018-07-17T00:41:30.255Z,6.00
2018-07-17T00:43:57.811Z,6.83
2018-07-17T00:46:25.374Z,6.30
2018-07-17T00:48:52.912Z,5.83
2018-07-17T00:51:20.491Z,6.00
2018-07-17T00:53:48.088Z,5.90
2018-07-17T00:56:15.623Z,5.67
2018-07-17T00:58:43.186Z,6.10
2018-07-17T01:01:10.175Z,5.47
2018-07-17T01:03:43.119Z,5.60
2018-07-17T01:06:16.262Z,5.60
2018-07-17T01:08:49.327Z,4.73
2018-07-17T01:11:22.495Z,5.13
2018-07-17T01:13:54.646Z,5.70
2018-07-17T01:16:22.259Z,5.73
2018-07-17T01:18:49.819Z,5.37
2018-07-17T01:21:17.351Z,5.43
2018-07-17T01:23:45.228Z,5.27
2018-07-17T01:26:12.742Z,5.23
2018-07-17T01:28:40.271Z,5.10
2018-07-17T01:31:07.841Z,5.80
2018-07-17T01:33:35.358Z,5.40
2018-07-17T01:36:02.938Z,5.53
2018-07-17T01:38:30.576Z,5.87
2018-07-17T01:40:58.085Z,5.83
2018-07-17T01:43:25.672Z,6.03
2018-07-17T01:45:53.258Z,5.77
2018-07-17T01:48:21.463Z,5.70
2018-07-17T01:50:49.000Z,6.03
2018-07-17T01:53:16.580Z,5.77
2018-07-17T01:55:44.134Z,5.63
2018-07-17T01:58:11.738Z,5.40
2018-07-17T02:00:39.984Z,5.83
2018-07-17T02:03:07.526Z,5.27
2018-07-17T02:05:35.090Z,5.90
2018-07-17T02:08:02.735Z,6.30
2018-07-17T02:10:30.289Z,5.80
2018-07-17T02:12:57.839Z,5.37
2018-07-17T02:15:25.399Z,6.00
2018-07-17T02:17:52.947Z,5.60
2018-07-17T02:20:20.464Z,5.87
2018-07-17T02:22:48.019Z,6.13
2018-07-17T02:25:15.562Z,5.70
2018-07-17T02:27:43.088Z,5.63
2018-07-17T02:30:10.654Z,6.10
2018-07-17T02:32:38.271Z,5.53
2018-07-17T02:35:05.790Z,5.40
2018-07-17T02:37:33.378Z,6.00
2018-07-17T02:40:00.919Z,5.57
2018-07-17T02:42:28.511Z,6.10
2018-07-17T02:44:56.041Z,6.50
2018-07-17T02:47:23.575Z,5.87
2018-07-17T02:49:51.167Z,5.90
2018-07-17T02:52:18.731Z,5.83
2018-07-17T02:54:46.266Z,5.90
2018-07-17T02:57:13.810Z,5.93
2018-07-17T02:59:41.383Z,6.63
2018-07-17T03:02:09.171Z,5.90
2018-07-17T03:04:36.704Z,6.20
2018-07-17T03:07:04.414Z,6.20
2018-07-17T03:09:31.957Z,6.30
2018-07-17T03:11:59.503Z,6.03
2018-07-17T03:14:27.094Z,6.60
2018-07-17T03:16:54.699Z,6.17
2018-07-17T03:19:22.242Z,6.30
2018-07-17T03:21:49.802Z,5.97
2018-07-17T03:24:17.342Z,6.03
2018-07-17T03:26:44.912Z,5.90
2018-07-17T03:29:12.466Z,6.13
2018-07-17T03:31:39.991Z,6.77
2018-07-17T03:34:07.543Z,6.77
2018-07-17T03:36:35.135Z,6.40
2018-07-17T03:39:02.863Z,7.33
2018-07-17T03:41:30.418Z,7.00
2018-07-17T03:43:57.987Z,6.67
2018-07-17T03:46:25.673Z,6.27
2018-07-17T03:48:53.263Z,7.00
2018-07-17T03:51:20.906Z,6.53
2018-07-17T03:53:48.488Z,6.70
2018-07-17T03:56:16.007Z,6.20
2018-07-17T03:58:43.548Z,7.27
2018-07-17T04:01:11.108Z,7.00
2018-07-17T04:03:38.633Z,6.20
2018-07-17T04:06:06.266Z,6.73
2018-07-17T04:08:33.893Z,7.07
2018-07-17T04:11:01.406Z,7.57
2018-07-17T04:13:29.022Z,6.87
2018-07-17T04:15:56.539Z,6.77
2018-07-17T04:18:24.098Z,6.67
2018-07-17T04:20:51.653Z,7.00
2018-07-17T04:23:19.207Z,6.83
2018-07-17T04:25:46.730Z,7.03
2018-07-17T04:28:14.282Z,6.87
2018-07-17T04:30:41.830Z,7.17
2018-07-17T04:33:09.409Z,10.17
2018-07-17T04:35:36.957Z,12.70
2018-07-17T04:38:04.570Z,8.53
2018-07-17T04:40:32.682Z,8.17
2018-07-17T04:43:00.226Z,7.00
2018-07-17T04:45:27.799Z,7.53
2018-07-17T04:47:55.383Z,7.97
2018-07-17T04:50:22.957Z,8.10
2018-07-17T04:52:50.525Z,7.90
2018-07-17T04:55:18.055Z,8.10
2018-07-17T04:57:45.595Z,7.07
2018-07-17T05:00:13.155Z,7.83
2018-07-17T05:02:40.810Z,7.40
2018-07-17T05:05:08.395Z,8.27
2018-07-17T05:07:35.955Z,8.23
2018-07-17T05:10:03.635Z,8.20
2018-07-17T05:12:31.167Z,8.50
2018-07-17T05:14:58.703Z,8.33
2018-07-17T05:17:26.314Z,8.03
2018-07-17T05:19:53.862Z,8.47
2018-07-17T05:22:21.468Z,8.03
2018-07-17T05:24:49.018Z,8.27
2018-07-17T05:27:16.571Z,8.63
2018-07-17T05:29:44.148Z,8.27
2018-07-17T05:32:11.798Z,8.80
2018-07-17T05:34:39.398Z,8.47
2018-07-17T05:37:06.972Z,8.13
2018-07-17T05:39:34.585Z,8.37
2018-07-17T05:42:02.221Z,8.37
2018-07-17T05:44:29.770Z,7.13
2018-07-17T05:46:57.343Z,8.10
2018-07-17T05:49:25.734Z,8.60
2018-07-17T05:51:53.373Z,7.97
2018-07-17T05:54:20.915Z,8.40
2018-07-17T05:56:48.456Z,7.87
2018-07-17T05:59:16.015Z,7.97
2018-07-17T06:01:43.598Z,7.90
2018-07-17T06:04:11.165Z,7.83
2018-07-17T06:06:38.695Z,7.93
2018-07-17T06:09:07.899Z,7.90
2018-07-17T06:11:35.519Z,8.20
2018-07-17T06:14:04.331Z,8.07
2018-07-17T06:16:31.931Z,7.87
2018-07-17T06:18:59.545Z,8.13
2018-07-17T06:21:27.145Z,6.90
2018-07-17T06:23:54.763Z,8.33
2018-07-17T06:26:22.315Z,7.93
2018-07-17T06:28:49.888Z,7.13
2018-07-17T06:31:17.706Z,7.13
2018-07-17T06:33:45.277Z,8.13
2018-07-17T06:36:12.858Z,7.57
2018-07-17T06:38:40.590Z,8.77
2018-07-17T06:41:08.330Z,7.93
2018-07-17T06:43:35.887Z,7.07
2018-07-17T06:46:03.757Z,7.10
2018-07-17T06:48:31.342Z,7.37
2018-07-17T06:50:59.655Z,7.70
2018-07-17T06:53:27.209Z,7.50
2018-07-17T06:55:55.035Z,7.43
2018-07-17T06:58:22.658Z,7.03
2018-07-17T07:00:50.775Z,7.43
2018-07-17T07:03:18.370Z,8.10
2018-07-17T07:05:45.955Z,8.33
2018-07-17T07:08:13.523Z,7.97
2018-07-17T07:10:41.140Z,8.27
2018-07-17T07:13:08.674Z,8.40
2018-07-17T07:15:36.234Z,7.63
2018-07-17T07:18:03.903Z,6.87
2018-07-17T07:20:31.478Z,8.57
2018-07-17T07:22:59.023Z,7.83
2018-07-17T07:25:26.628Z,7.23
2018-07-17T07:27:54.230Z,8.57
2018-07-17T07:30:21.846Z,7.87
2018-07-17T07:32:49.408Z,7.03
2018-07-17T07:35:17.003Z,7.77
2018-07-17T07:37:44.810Z,7.63
2018-07-17T07:40:12.411Z,6.43
2018-07-17T07:42:39.957Z,6.63
2018-07-17T07:45:07.531Z,6.10
2018-07-17T07:47:35.123Z,6.10
2018-07-17T07:50:02.745Z,6.80
2018-07-17T07:52:30.330Z,5.73
2018-07-17T07:54:57.904Z,5.93
2018-07-17T07:57:25.499Z,6.13
2018-07-17T07:59:53.132Z,5.53
2018-07-17T08:02:20.684Z,6.17
2018-07-17T08:04:48.342Z,5.10
2018-07-17T08:07:15.946Z,5.60
2018-07-17T08:09:43.505Z,5.00
2018-07-17T08:12:11.169Z,4.93
2018-07-17T08:14:38.699Z,5.43
2018-07-17T08:17:06.351Z,5.47
2018-07-17T08:19:33.932Z,5.47
2018-07-17T08:22:01.546Z,4.67
2018-07-17T08:24:29.113Z,4.70
2018-07-17T08:26:56.687Z,4.70
2018-07-17T08:29:24.271Z,5.40
2018-07-17T08:31:51.856Z,4.83
2018-07-17T08:34:19.459Z,4.70
2018-07-17T08:36:47.037Z,4.93
2018-07-17T08:39:14.594Z,4.50
2018-07-17T08:41:42.155Z,4.67
2018-07-17T08:44:09.801Z,4.47
2018-07-17T08:46:37.458Z,4.83
2018-07-17T08:49:05.021Z,4.10
2018-07-17T08:51:32.710Z,4.67
2018-07-17T08:54:01.041Z,4.10
2018-07-17T08:56:28.591Z,4.57
2018-07-17T08:58:57.286Z,4.20
2018-07-17T09:01:24.842Z,4.80
2018-07-17T09:03:52.418Z,4.27
2018-07-17T09:06:20.110Z,4.00
2018-07-17T09:08:47.643Z,4.23
2018-07-17T09:11:15.226Z,4.00
2018-07-17T09:13:42.767Z,4.37
2018-07-17T09:16:10.332Z,4.00
2018-07-17T09:18:38.265Z,4.10
2018-07-17T09:21:06.563Z,3.70
2018-07-17T09:23:34.253Z,4.23
2018-07-17T09:26:01.807Z,5.30
2018-07-17T09:28:29.403Z,4.20
2018-07-17T09:31:00.240Z,5.40
2018-07-17T09:33:28.469Z,5.00
2018-07-17T09:35:56.116Z,4.10
2018-07-17T09:38:23.675Z,4.13
2018-07-17T09:40:51.259Z,3.70
2018-07-17T09:43:18.838Z,3.43
2018-07-17T09:45:46.444Z,3.80
2018-07-17T09:48:14.003Z,4.23
2018-07-17T09:50:41.563Z,3.87
2018-07-17T09:53:09.134Z,3.70
2018-07-17T09:55:36.692Z,3.77
2018-07-17T09:58:04.389Z,3.67
2018-07-17T10:00:35.051Z,4.13
2018-07-17T10:03:03.134Z,4.17
2018-07-17T10:05:30.718Z,4.67
2018-07-17T10:07:58.293Z,5.13
2018-07-17T10:10:25.890Z,4.30
2018-07-17T10:12:53.637Z,3.40
2018-07-17T10:15:21.315Z,3.30
2018-07-17T10:17:48.898Z,4.77
2018-07-17T10:20:16.538Z,3.80
2018-07-17T10:22:44.111Z,4.23
2018-07-17T10:25:11.713Z,3.40
2018-07-17T10:27:39.265Z,3.03
2018-07-17T10:30:06.983Z,3.53
2018-07-17T10:32:34.858Z,3.37
2018-07-17T10:35:02.467Z,3.20
2018-07-17T10:37:30.070Z,3.57
2018-07-17T10:39:57.662Z,3.40
2018-07-17T10:42:25.255Z,3.47
2018-07-17T10:44:52.999Z,3.33
2018-07-17T10:47:20.723Z,3.40
2018-07-17T10:49:48.404Z,3.50
2018-07-17T10:52:15.967Z,3.43
2018-07-17T10:54:43.599Z,3.17
2018-07-17T10:57:11.157Z,3.33
2018-07-17T10:59:38.749Z,3.47
2018-07-17T11:02:06.423Z,3.30
2018-07-17T11:04:33.974Z,3.60
2018-07-17T11:07:01.627Z,3.73
2018-07-17T11:09:29.583Z,4.17
2018-07-17T11:11:57.192Z,6.00
2018-07-17T11:14:24.841Z,4.10
2018-07-17T11:16:52.389Z,3.53
2018-07-17T11:19:20.003Z,3.60
2018-07-17T11:21:47.579Z,3.83
2018-07-17T11:24:15.198Z,3.80
2018-07-17T11:26:42.750Z,3.37
2018-07-17T11:29:10.304Z,3.83
2018-07-17T11:31:37.884Z,3.60
2018-07-17T11:34:05.578Z,3.17
2018-07-17T11:36:33.154Z,3.30
2018-07-17T11:39:00.703Z,3.20
2018-07-17T11:41:28.271Z,3.53
2018-07-17T11:43:55.823Z,3.93
2018-07-17T11:46:23.387Z,3.03
2018-07-17T11:48:50.958Z,3.70
2018-07-17T11:51:18.531Z,3.67
2018-07-17T11:53:46.121Z,3.60
2018-07-17T11:56:13.705Z,7.80
2018-07-17T11:58:41.287Z,3.60
2018-07-17T12:01:08.912Z,3.60
2018-07-17T12:03:36.502Z,3.27
2018-07-17T12:06:04.187Z,3.60
2018-07-17T12:08:31.754Z,3.47
2018-07-17T12:10:59.346Z,2.93
2018-07-17T12:13:26.931Z,2.80
2018-07-17T12:15:54.507Z,3.10
2018-07-17T12:18:22.724Z,3.03
2018-07-17T12:20:50.280Z,3.07
2018-07-17T12:23:17.927Z,2.83
2018-07-17T12:25:45.758Z,3.10
2018-07-17T12:28:14.281Z,3.27
2018-07-17T12:30:42.797Z,3.10
2018-07-17T12:33:10.461Z,2.97
2018-07-17T12:35:38.086Z,3.30
2018-07-17T12:38:05.740Z,2.50
2018-07-17T12:40:33.326Z,2.80
2018-07-17T12:43:00.938Z,3.00
2018-07-17T12:45:28.555Z,3.57
2018-07-17T12:47:56.150Z,3.30
2018-07-17T12:50:23.800Z,3.10
2018-07-17T12:52:51.392Z,2.57
2018-07-17T12:55:18.992Z,2.60
2018-07-17T12:57:46.556Z,2.60
2018-07-17T13:00:14.204Z,2.70
2018-07-17T13:02:41.779Z,2.90
2018-07-17T13:05:09.316Z,2.40
2018-07-17T13:07:36.926Z,2.67
2018-07-17T13:10:04.997Z,2.53
2018-07-17T13:12:32.565Z,2.77
2018-07-17T13:15:00.136Z,2.80
2018-07-17T13:17:27.854Z,2.47
2018-07-17T13:19:55.422Z,2.97
2018-07-17T13:22:22.991Z,3.10
2018-07-17T13:24:50.575Z,3.83
2018-07-17T13:27:18.151Z,2.77
2018-07-17T13:29:45.742Z,2.80
2018-07-17T13:32:13.302Z,2.63
2018-07-17T13:34:40.931Z,2.30
2018-07-17T13:37:08.524Z,2.87
2018-07-17T13:39:36.101Z,2.70
2018-07-17T13:42:03.695Z,2.40
2018-07-17T13:44:31.250Z,2.40
2018-07-17T13:46:58.854Z,2.57
2018-07-17T13:49:26.413Z,2.63
2018-07-17T13:51:53.955Z,2.70
2018-07-17T13:54:21.529Z,2.70
2018-07-17T13:56:49.056Z,2.40
2018-07-17T13:59:16.630Z,2.90
2018-07-17T14:01:44.202Z,2.57
2018-07-17T14:04:11.776Z,2.67
2018-07-17T14:06:39.394Z,2.77
2018-07-17T14:09:08.167Z,2.60
2018-07-17T14:11:35.997Z,2.60
2018-07-17T14:14:03.677Z,2.47
2018-07-17T14:16:31.249Z,2.77
2018-07-17T14:18:58.856Z,2.40
2018-07-17T14:21:26.462Z,2.80
2018-07-17T14:23:54.105Z,2.60
2018-07-17T14:26:21.754Z,2.70
2018-07-17T14:28:49.322Z,2.83
2018-07-17T14:31:16.933Z,2.47
2018-07-17T14:33:44.560Z,2.97
2018-07-17T14:36:12.134Z,2.60
2018-07-17T14:38:39.674Z,2.30
2018-07-17T14:41:07.334Z,2.50
2018-07-17T14:43:34.984Z,2.57
2018-07-17T14:46:02.571Z,2.83
2018-07-17T14:48:30.170Z,2.80
2018-07-17T14:50:57.749Z,2.67
2018-07-17T14:53:25.378Z,2.60
2018-07-17T14:55:52.982Z,2.80
2018-07-17T14:58:20.580Z,2.67
2018-07-17T15:00:48.148Z,2.50
2018-07-17T15:03:15.703Z,2.67
2018-07-17T15:05:43.309Z,2.77
2018-07-17T15:08:11.487Z,2.90
2018-07-17T15:10:39.301Z,2.50
2018-07-17T15:13:07.843Z,2.50
2018-07-17T15:15:35.613Z,2.83
2018-07-17T15:18:03.154Z,2.77
2018-07-17T15:20:30.736Z,2.87
2018-07-17T15:22:58.346Z,2.73
2018-07-17T15:25:25.895Z,2.60
2018-07-17T15:27:53.538Z,2.90
2018-07-17T15:30:21.282Z,2.83
2018-07-17T15:32:48.846Z,5.50
2018-07-17T15:35:16.489Z,4.43
2018-07-17T15:37:44.046Z,3.13
2018-07-17T15:40:11.644Z,4.40
2018-07-17T15:42:39.243Z,7.50
2018-07-17T15:45:06.860Z,5.40
2018-07-17T15:47:34.498Z,3.23
2018-07-17T15:50:02.047Z,3.37
2018-07-17T15:52:29.638Z,3.70
2018-07-17T15:54:57.198Z,5.00
2018-07-17T15:57:24.767Z,5.30
2018-07-17T15:59:52.453Z,4.00
2018-07-17T16:02:20.128Z,8.10
2018-07-17T16:04:47.687Z,4.17
2018-07-17T16:07:15.267Z,3.77
2018-07-17T16:09:42.856Z,3.50
2018-07-17T16:12:10.482Z,2.90
2018-07-17T16:14:38.043Z,3.17
2018-07-17T16:17:05.674Z,2.87
2018-07-17T16:19:33.430Z,3.27
2018-07-17T16:22:01.039Z,3.23
2018-07-17T16:24:28.634Z,5.37
2018-07-17T16:26:56.237Z,3.63
2018-07-17T16:29:23.869Z,3.50
2018-07-17T16:31:51.466Z,3.20
2018-07-17T16:34:19.001Z,3.20
2018-07-17T16:36:46.679Z,3.13
2018-07-17T16:39:14.234Z,3.57
2018-07-17T16:41:41.834Z,2.93
2018-07-17T16:44:09.393Z,3.33
2018-07-17T16:46:37.007Z,3.33
2018-07-17T16:49:04.791Z,3.13
2018-07-17T16:51:32.404Z,2.80
2018-07-17T16:54:00.052Z,3.47
2018-07-17T16:56:27.580Z,2.73
2018-07-17T16:58:55.149Z,3.30
2018-07-17T17:01:23.072Z,3.10
2018-07-17T17:03:50.879Z,3.13
2018-07-17T17:06:18.452Z,3.07
2018-07-17T17:08:46.073Z,2.93
2018-07-17T17:11:13.690Z,2.70
2018-07-17T17:13:41.282Z,3.00
2018-07-17T17:16:08.958Z,2.73
2018-07-17T17:18:36.492Z,3.30
2018-07-17T17:21:04.059Z,2.70
2018-07-17T17:23:31.614Z,2.70
2018-07-17T17:25:59.174Z,3.10
2018-07-17T17:28:26.753Z,2.63
2018-07-17T17:30:54.848Z,2.83
2018-07-17T17:33:22.447Z,2.80
2018-07-17T17:35:49.970Z,3.10
2018-07-17T17:38:17.560Z,2.80
2018-07-17T17:40:45.126Z,2.73
2018-07-17T17:43:12.763Z,3.00
2018-07-17T17:45:40.321Z,3.27
2018-07-17T17:48:07.867Z,2.80
2018-07-17T17:50:35.482Z,2.73
2018-07-17T17:53:03.031Z,2.97
2018-07-17T17:55:30.614Z,2.87
2018-07-17T17:57:58.187Z,3.40
2018-07-17T18:00:25.759Z,3.10
2018-07-17T18:02:53.335Z,3.73
2018-07-17T18:05:21.138Z,4.00
2018-07-17T18:07:48.715Z,4.33
2018-07-17T18:10:16.279Z,2.83
2018-07-17T18:12:43.857Z,3.40
2018-07-17T18:15:11.528Z,3.67
2018-07-17T18:17:39.212Z,4.17
2018-07-17T18:20:06.894Z,2.97
2018-07-17T18:22:34.567Z,3.70
2018-07-17T18:25:02.382Z,3.43
2018-07-17T18:27:29.918Z,4.17
2018-07-17T18:29:57.470Z,2.97
2018-07-17T18:32:25.047Z,4.57
2018-07-17T18:34:53.197Z,3.97
2018-07-17T18:37:20.809Z,4.30
2018-07-17T18:39:48.390Z,3.90
2018-07-17T18:42:15.971Z,4.87
2018-07-17T18:44:44.906Z,6.17
2018-07-17T18:47:12.598Z,8.03
2018-07-17T18:49:40.219Z,5.83
2018-07-17T18:52:08.188Z,6.27
2018-07-17T18:54:35.754Z,5.13
2018-07-17T18:57:03.394Z,3.33
2018-07-17T18:59:30.989Z,3.40
2018-07-17T19:01:58.639Z,3.33
2018-07-17T19:04:26.178Z,3.10
2018-07-17T19:06:53.717Z,4.40
2018-07-17T19:09:21.324Z,2.93
2018-07-17T19:11:48.945Z,3.30
2018-07-17T19:14:16.485Z,3.17
2018-07-17T19:16:44.005Z,3.70
2018-07-17T19:19:11.568Z,3.20
2018-07-17T19:21:39.174Z,3.10
2018-07-17T19:24:06.763Z,3.20
2018-07-17T19:26:34.338Z,3.00
2018-07-17T19:29:01.886Z,3.13
2018-07-17T19:31:29.451Z,3.30
2018-07-17T19:33:57.111Z,3.30
2018-07-17T19:36:24.654Z,3.13
2018-07-17T19:38:52.230Z,4.67
2018-07-17T19:41:19.815Z,3.20
2018-07-17T19:43:51.845Z,3.20
2018-07-17T19:46:19.634Z,3.30
2018-07-17T19:48:47.362Z,3.73
2018-07-17T19:51:15.052Z,3.37
2018-07-17T19:53:42.575Z,3.07
2018-07-17T19:56:10.140Z,3.73
2018-07-17T19:58:37.740Z,3.00
2018-07-17T20:01:05.648Z,3.20
2018-07-17T20:03:33.389Z,3.33
2018-07-17T20:06:01.015Z,3.63
2018-07-17T20:08:28.758Z,3.17
2018-07-17T20:10:56.350Z,3.70
2018-07-17T20:13:24.499Z,3.37
2018-07-17T20:15:52.219Z,3.67
2018-07-17T20:18:19.906Z,3.40
2018-07-17T20:20:47.482Z,3.50
2018-07-17T20:23:15.354Z,3.30
2018-07-17T20:25:42.931Z,3.40
2018-07-17T20:28:10.490Z,3.20
2018-07-17T20:30:38.050Z,3.90
2018-07-17T20:33:05.628Z,3.30
2018-07-17T20:35:33.263Z,3.43
2018-07-17T20:38:00.952Z,3.57
2018-07-17T20:40:28.536Z,3.40
2018-07-17T20:42:56.130Z,3.27
2018-07-17T20:45:23.798Z,3.00
2018-07-17T20:47:51.346Z,3.13
2018-07-17T20:50:18.931Z,2.90
2018-07-17T20:52:46.617Z,3.37
2018-07-17T20:55:14.186Z,3.13
2018-07-17T20:57:41.771Z,3.00
2018-07-17T21:00:09.390Z,3.07
2018-07-17T21:02:36.950Z,3.37
2018-07-17T21:05:05.103Z,3.30
2018-07-17T21:07:32.697Z,3.73
2018-07-17T21:10:00.284Z,3.30
2018-07-17T21:12:27.846Z,3.33
2018-07-17T21:14:55.594Z,3.53
2018-07-17T21:17:23.146Z,4.43
2018-07-17T21:19:51.781Z,3.47
2018-07-17T21:22:19.360Z,3.70
2018-07-17T21:24:47.311Z,3.80
2018-07-17T21:27:19.262Z,3.97
2018-07-17T21:29:47.043Z,3.80
2018-07-17T21:32:14.788Z,3.93
2018-07-17T21:34:42.387Z,4.03
2018-07-17T21:37:09.927Z,3.87
2018-07-17T21:39:37.495Z,3.77
2018-07-17T21:42:05.328Z,3.73
2018-07-17T21:44:32.922Z,3.63
2018-07-17T21:47:00.482Z,4.13
2018-07-17T21:49:28.191Z,5.13
2018-07-17T21:51:55.803Z,3.67
2018-07-17T21:54:23.334Z,4.07
2018-07-17T21:56:50.918Z,3.67
2018-07-17T21:59:18.493Z,3.80
2018-07-17T22:01:46.237Z,3.93
2018-07-17T22:04:13.886Z,3.77
2018-07-17T22:06:41.539Z,3.97
2018-07-17T22:09:11.259Z,4.63
2018-07-17T22:11:39.052Z,4.23
2018-07-17T22:14:06.863Z,4.27
2018-07-17T22:16:34.488Z,4.67
2018-07-17T22:19:02.027Z,3.93
2018-07-17T22:21:29.848Z,4.17
2018-07-17T22:23:59.082Z,4.27
2018-07-17T22:26:26.938Z,4.07
2018-07-17T22:28:54.634Z,4.23
2018-07-17T22:31:22.415Z,3.90
2018-07-17T22:33:50.143Z,4.43
2018-07-17T22:36:17.880Z,4.07
2018-07-17T22:38:45.584Z,3.93
2018-07-17T22:41:13.306Z,4.00
2018-07-17T22:43:40.935Z,4.20
2018-07-17T22:46:08.530Z,4.30
2018-07-17T22:48:36.086Z,4.63
2018-07-17T22:51:04.119Z,4.17
2018-07-17T22:53:31.698Z,4.10
2018-07-17T22:55:59.368Z,4.43
2018-07-17T22:58:26.954Z,4.73
2018-07-17T23:17:55.896Z,4.20
2018-07-17T23:20:25.390Z,4.87
2018-07-17T23:23:00.677Z,4.80
2018-07-17T23:25:29.516Z,4.30
2018-07-17T23:27:57.727Z,5.07
2018-07-17T23:30:25.377Z,4.60
2018-07-17T23:32:53.171Z,5.33
2018-07-17T23:35:21.692Z,4.57
2018-07-17T23:37:49.920Z,4.93
2018-07-17T23:40:18.113Z,4.63
2018-07-17T23:42:45.821Z,4.43
2018-07-17T23:45:14.165Z,4.70
2018-07-17T23:47:41.813Z,5.00
2018-07-17T23:50:09.465Z,4.73
2018-07-17T23:52:37.052Z,5.33
2018-07-17T23:55:04.909Z,4.97
2018-07-17T23:57:32.616Z,5.10
